sensor_id;sensor_type;location;lat;lon;timestamp;pressure;altitude;pressure_sealevel;temperature
58909;BMP280;44690;48.154;17.102;2023-01-15T00:00:59;99405.28;;;5.49
58909;BMP280;44690;48.154;17.102;2023-01-15T00:02:32;99404.25;;;5.52
58909;BMP280;44690;48.154;17.102;2023-01-15T00:04:05;99404.44;;;5.54
58909;BMP280;44690;48.154;17.102;2023-01-15T00:05:37;99408.06;;;5.57
58909;BMP280;44690;48.154;17.102;2023-01-15T00:07:09;99406.81;;;5.58
58909;BMP280;44690;48.154;17.102;2023-01-15T00:08:41;99402.34;;;5.60
58909;BMP280;44690;48.154;17.102;2023-01-15T00:10:13;99402.34;;;5.60
58909;BMP280;44690;48.154;17.102;2023-01-15T00:11:45;99398.94;;;5.60
58909;BMP280;44690;48.154;17.102;2023-01-15T00:13:17;99393.75;;;5.62
58909;BMP280;44690;48.154;17.102;2023-01-15T00:14:49;99391.78;;;5.62
58909;BMP280;44690;48.154;17.102;2023-01-15T00:16:22;99400.03;;;5.64
58909;BMP280;44690;48.154;17.102;2023-01-15T00:17:54;99397.75;;;5.68
58909;BMP280;44690;48.154;17.102;2023-01-15T00:19:26;99392.03;;;5.72
58909;BMP280;44690;48.154;17.102;2023-01-15T00:21:01;99382.22;;;5.75
58909;BMP280;44690;48.154;17.102;2023-01-15T00:22:34;99385.06;;;5.77
58909;BMP280;44690;48.154;17.102;2023-01-15T00:24:06;99383.09;;;5.77
58909;BMP280;44690;48.154;17.102;2023-01-15T00:25:56;99379.88;;;5.79
58909;BMP280;44690;48.154;17.102;2023-01-15T00:27:47;99382.03;;;5.80
58909;BMP280;44690;48.154;17.102;2023-01-15T00:29:20;99376.13;;;5.82
58909;BMP280;44690;48.154;17.102;2023-01-15T00:30:52;99373.66;;;5.84
58909;BMP280;44690;48.154;17.102;2023-01-15T00:32:24;99387.31;;;5.86
58909;BMP280;44690;48.154;17.102;2023-01-15T00:33:58;99380.69;;;5.87
58909;BMP280;44690;48.154;17.102;2023-01-15T00:35:30;99378.19;;;5.89
58909;BMP280;44690;48.154;17.102;2023-01-15T00:37:03;99367.41;;;5.89
58909;BMP280;44690;48.154;17.102;2023-01-15T00:38:36;99364.00;;;5.88
58909;BMP280;44690;48.154;17.102;2023-01-15T00:40:08;99371.53;;;5.90
58909;BMP280;44690;48.154;17.102;2023-01-15T00:41:43;99373.00;;;5.91
58909;BMP280;44690;48.154;17.102;2023-01-15T00:43:15;99372.44;;;5.92
58909;BMP280;44690;48.154;17.102;2023-01-15T00:44:48;99366.34;;;5.92
58909;BMP280;44690;48.154;17.102;2023-01-15T00:46:20;99371.00;;;5.91
58909;BMP280;44690;48.154;17.102;2023-01-15T00:47:52;99369.75;;;5.92
58909;BMP280;44690;48.154;17.102;2023-01-15T00:49:24;99367.06;;;5.92
58909;BMP280;44690;48.154;17.102;2023-01-15T00:50:57;99360.44;;;5.93
58909;BMP280;44690;48.154;17.102;2023-01-15T00:52:29;99355.75;;;5.94
58909;BMP280;44690;48.154;17.102;2023-01-15T00:54:01;99354.53;;;5.95
58909;BMP280;44690;48.154;17.102;2023-01-15T00:55:33;99365.50;;;5.97
58909;BMP280;44690;48.154;17.102;2023-01-15T00:57:05;99358.13;;;5.97
58909;BMP280;44690;48.154;17.102;2023-01-15T00:58:37;99353.47;;;5.98
58909;BMP280;44690;48.154;17.102;2023-01-15T01:00:09;99355.66;;;6.00
58909;BMP280;44690;48.154;17.102;2023-01-15T01:01:43;99350.25;;;6.00
58909;BMP280;44690;48.154;17.102;2023-01-15T01:03:16;99344.88;;;6.00
58909;BMP280;44690;48.154;17.102;2023-01-15T01:04:48;99342.91;;;6.00
58909;BMP280;44690;48.154;17.102;2023-01-15T01:06:20;99342.38;;;6.02
58909;BMP280;44690;48.154;17.102;2023-01-15T01:07:52;99329.13;;;6.04
58909;BMP280;44690;48.154;17.102;2023-01-15T01:09:24;99318.13;;;6.02
58909;BMP280;44690;48.154;17.102;2023-01-15T01:12:34;99316.38;;;6.04
58909;BMP280;44690;48.154;17.102;2023-01-15T01:14:08;99313.13;;;6.06
58909;BMP280;44690;48.154;17.102;2023-01-15T01:15:41;99323.19;;;6.05
58909;BMP280;44690;48.154;17.102;2023-01-15T01:17:13;99332.00;;;6.06
58909;BMP280;44690;48.154;17.102;2023-01-15T01:18:45;99338.63;;;6.05
58909;BMP280;44690;48.154;17.102;2023-01-15T01:20:17;99340.75;;;6.06
58909;BMP280;44690;48.154;17.102;2023-01-15T01:21:51;99332.19;;;6.08
58909;BMP280;44690;48.154;17.102;2023-01-15T01:23:23;99333.41;;;6.07
58909;BMP280;44690;48.154;17.102;2023-01-15T01:24:55;99337.56;;;6.08
58909;BMP280;44690;48.154;17.102;2023-01-15T01:26:28;99325.00;;;6.10
58909;BMP280;44690;48.154;17.102;2023-01-15T01:28:00;99326.25;;;6.09
58909;BMP280;44690;48.154;17.102;2023-01-15T01:29:32;99319.44;;;6.08
58909;BMP280;44690;48.154;17.102;2023-01-15T01:31:04;99324.81;;;6.08
58909;BMP280;44690;48.154;17.102;2023-01-15T01:32:36;99317.81;;;6.05
58909;BMP280;44690;48.154;17.102;2023-01-15T01:34:09;99316.00;;;6.08
58909;BMP280;44690;48.154;17.102;2023-01-15T01:35:46;99317.25;;;6.07
58909;BMP280;44690;48.154;17.102;2023-01-15T01:37:18;99314.03;;;6.08
58909;BMP280;44690;48.154;17.102;2023-01-15T01:38:50;99318.72;;;6.08
58909;BMP280;44690;48.154;17.102;2023-01-15T01:40:22;99314.53;;;6.07
58909;BMP280;44690;48.154;17.102;2023-01-15T01:41:54;99316.53;;;6.06
58909;BMP280;44690;48.154;17.102;2023-01-15T01:43:28;99317.81;;;6.05
58909;BMP280;44690;48.154;17.102;2023-01-15T01:45:03;99321.22;;;6.06
58909;BMP280;44690;48.154;17.102;2023-01-15T01:46:35;99304.88;;;6.04
58909;BMP280;44690;48.154;17.102;2023-01-15T01:48:07;99308.06;;;6.02
58909;BMP280;44690;48.154;17.102;2023-01-15T01:49:39;99317.19;;;5.99
58909;BMP280;44690;48.154;17.102;2023-01-15T01:51:12;99325.41;;;5.93
58909;BMP280;44690;48.154;17.102;2023-01-15T01:52:45;99322.69;;;5.86
58909;BMP280;44690;48.154;17.102;2023-01-15T01:54:20;99311.13;;;5.78
58909;BMP280;44690;48.154;17.102;2023-01-15T01:55:54;99311.81;;;5.70
58909;BMP280;44690;48.154;17.102;2023-01-15T01:57:27;99301.91;;;5.65
58909;BMP280;44690;48.154;17.102;2023-01-15T01:59:00;99298.81;;;5.61
58909;BMP280;44690;48.154;17.102;2023-01-15T02:00:33;99288.19;;;5.56
58909;BMP280;44690;48.154;17.102;2023-01-15T02:02:06;99283.16;;;5.52
58909;BMP280;44690;48.154;17.102;2023-01-15T02:03:38;99296.72;;;5.47
58909;BMP280;44690;48.154;17.102;2023-01-15T02:05:15;99294.91;;;5.41
58909;BMP280;44690;48.154;17.102;2023-01-15T02:06:51;99297.41;;;5.39
58909;BMP280;44690;48.154;17.102;2023-01-15T02:08:23;99285.31;;;5.33
58909;BMP280;44690;48.154;17.102;2023-01-15T02:09:57;99277.91;;;5.26
58909;BMP280;44690;48.154;17.102;2023-01-15T02:11:30;99276.06;;;5.21
58909;BMP280;44690;48.154;17.102;2023-01-15T02:14:38;99264.13;;;5.08
58909;BMP280;44690;48.154;17.102;2023-01-15T02:16:22;99257.03;;;4.98
58909;BMP280;44690;48.154;17.102;2023-01-15T02:18:06;99257.50;;;4.88
58909;BMP280;44690;48.154;17.102;2023-01-15T02:23:05;99251.41;;;4.75
58909;BMP280;44690;48.154;17.102;2023-01-15T02:28:15;99246.28;;;4.63
58909;BMP280;44690;48.154;17.102;2023-01-15T02:31:29;99247.44;;;4.55
58909;BMP280;44690;48.154;17.102;2023-01-15T02:33:08;99241.66;;;4.51
58909;BMP280;44690;48.154;17.102;2023-01-15T02:34:43;99231.03;;;4.45
58909;BMP280;44690;48.154;17.102;2023-01-15T02:36:18;99237.63;;;4.44
58909;BMP280;44690;48.154;17.102;2023-01-15T02:37:55;99243.31;;;4.41
58909;BMP280;44690;48.154;17.102;2023-01-15T02:39:30;99241.88;;;4.39
58909;BMP280;44690;48.154;17.102;2023-01-15T02:41:04;99244.06;;;4.41
58909;BMP280;44690;48.154;17.102;2023-01-15T02:42:42;99237.78;;;4.38
58909;BMP280;44690;48.154;17.102;2023-01-15T02:44:15;99238.09;;;4.35
58909;BMP280;44690;48.154;17.102;2023-01-15T02:45:49;99230.31;;;4.31
58909;BMP280;44690;48.154;17.102;2023-01-15T02:47:25;99232.81;;;4.29
58909;BMP280;44690;48.154;17.102;2023-01-15T02:48:59;99239.22;;;4.26
58909;BMP280;44690;48.154;17.102;2023-01-15T02:50:39;99239.53;;;4.23
58909;BMP280;44690;48.154;17.102;2023-01-15T02:52:15;99235.91;;;4.20
58909;BMP280;44690;48.154;17.102;2023-01-15T02:53:48;99231.59;;;4.17
58909;BMP280;44690;48.154;17.102;2023-01-15T02:55:27;99224.56;;;4.14
58909;BMP280;44690;48.154;17.102;2023-01-15T02:57:01;99224.88;;;4.10
58909;BMP280;44690;48.154;17.102;2023-01-15T02:58:35;99228.59;;;4.07
58909;BMP280;44690;48.154;17.102;2023-01-15T03:00:10;99225.50;;;4.03
58909;BMP280;44690;48.154;17.102;2023-01-15T03:01:49;99214.53;;;4.01
58909;BMP280;44690;48.154;17.102;2023-01-15T03:05:26;99208.97;;;3.99
58909;BMP280;44690;48.154;17.102;2023-01-15T03:07:03;99213.97;;;3.95
58909;BMP280;44690;48.154;17.102;2023-01-15T03:08:36;99214.25;;;3.92
58909;BMP280;44690;48.154;17.102;2023-01-15T03:10:09;99209.59;;;3.92
58909;BMP280;44690;48.154;17.102;2023-01-15T03:11:43;99204.75;;;3.91
58909;BMP280;44690;48.154;17.102;2023-01-15T03:13:16;99201.13;;;3.88
58909;BMP280;44690;48.154;17.102;2023-01-15T03:16:36;99196.59;;;3.83
58909;BMP280;44690;48.154;17.102;2023-01-15T03:18:11;99198.13;;;3.78
58909;BMP280;44690;48.154;17.102;2023-01-15T03:19:48;99206.31;;;3.73
58909;BMP280;44690;48.154;17.102;2023-01-15T03:21:27;99204.66;;;3.70
58909;BMP280;44690;48.154;17.102;2023-01-15T03:23:04;99196.38;;;3.68
58909;BMP280;44690;48.154;17.102;2023-01-15T03:24:42;99199.59;;;3.66
58909;BMP280;44690;48.154;17.102;2023-01-15T03:26:15;99188.66;;;3.64
58909;BMP280;44690;48.154;17.102;2023-01-15T03:27:48;99187.72;;;3.62
58909;BMP280;44690;48.154;17.102;2023-01-15T03:29:21;99181.63;;;3.61
58909;BMP280;44690;48.154;17.102;2023-01-15T03:30:57;99189.69;;;3.61
58909;BMP280;44690;48.154;17.102;2023-01-15T03:32:29;99184.31;;;3.61
58909;BMP280;44690;48.154;17.102;2023-01-15T03:34:02;99184.59;;;3.57
58909;BMP280;44690;48.154;17.102;2023-01-15T03:35:51;99183.66;;;3.55
58909;BMP280;44690;48.154;17.102;2023-01-15T03:37:49;99179.16;;;3.50
58909;BMP280;44690;48.154;17.102;2023-01-15T03:39:22;99180.38;;;3.49
58909;BMP280;44690;48.154;17.102;2023-01-15T03:42:49;99178.00;;;3.45
58909;BMP280;44690;48.154;17.102;2023-01-15T03:48:23;99184.81;;;3.46
58909;BMP280;44690;48.154;17.102;2023-01-15T03:50:04;99172.88;;;3.47
58909;BMP280;44690;48.154;17.102;2023-01-15T03:51:52;99173.34;;;3.46
58909;BMP280;44690;48.154;17.102;2023-01-15T03:53:47;99167.06;;;3.43
58909;BMP280;44690;48.154;17.102;2023-01-15T03:55:24;99168.28;;;3.42
58909;BMP280;44690;48.154;17.102;2023-01-15T03:57:26;99164.16;;;3.41
58909;BMP280;44690;48.154;17.102;2023-01-15T04:00:48;99165.63;;;3.42
58909;BMP280;44690;48.154;17.102;2023-01-15T04:02:22;99156.84;;;3.42
58909;BMP280;44690;48.154;17.102;2023-01-15T04:03:55;99156.84;;;3.42
58909;BMP280;44690;48.154;17.102;2023-01-15T04:05:30;99158.50;;;3.45
58909;BMP280;44690;48.154;17.102;2023-01-15T04:07:02;99146.13;;;3.42
58909;BMP280;44690;48.154;17.102;2023-01-15T04:08:37;99129.31;;;3.41
58909;BMP280;44690;48.154;17.102;2023-01-15T04:10:10;99140.56;;;3.40
58909;BMP280;44690;48.154;17.102;2023-01-15T04:11:42;99149.31;;;3.40
58909;BMP280;44690;48.154;17.102;2023-01-15T04:13:14;99135.91;;;3.40
58909;BMP280;44690;48.154;17.102;2023-01-15T04:14:47;99138.59;;;3.40
58909;BMP280;44690;48.154;17.102;2023-01-15T04:16:26;99142.72;;;3.41
58909;BMP280;44690;48.154;17.102;2023-01-15T04:17:59;99140.75;;;3.42
58909;BMP280;44690;48.154;17.102;2023-01-15T04:19:33;99152.72;;;3.41
58909;BMP280;44690;48.154;17.102;2023-01-15T04:21:08;99153.97;;;3.40
58909;BMP280;44690;48.154;17.102;2023-01-15T04:22:40;99149.31;;;3.40
58909;BMP280;44690;48.154;17.102;2023-01-15T04:24:12;99150.56;;;3.39
58909;BMP280;44690;48.154;17.102;2023-01-15T04:25:44;99141.81;;;3.39
58909;BMP280;44690;48.154;17.102;2023-01-15T04:27:17;99143.72;;;3.38
58909;BMP280;44690;48.154;17.102;2023-01-15T04:28:49;99137.66;;;3.38
58909;BMP280;44690;48.154;17.102;2023-01-15T04:30:21;99131.56;;;3.37
58909;BMP280;44690;48.154;17.102;2023-01-15T04:31:53;99129.19;;;3.33
58909;BMP280;44690;48.154;17.102;2023-01-15T04:33:28;99125.06;;;3.32
58909;BMP280;44690;48.154;17.102;2023-01-15T04:35:00;99115.06;;;3.33
58909;BMP280;44690;48.154;17.102;2023-01-15T04:36:32;99119.69;;;3.32
58909;BMP280;44690;48.154;17.102;2023-01-15T04:38:07;99120.41;;;3.33
58909;BMP280;44690;48.154;17.102;2023-01-15T04:39:39;99106.09;;;3.30
58909;BMP280;44690;48.154;17.102;2023-01-15T04:41:11;99117.03;;;3.32
58909;BMP280;44690;48.154;17.102;2023-01-15T04:43:01;99099.50;;;3.31
58909;BMP280;44690;48.154;17.102;2023-01-15T04:44:52;99111.25;;;3.28
58909;BMP280;44690;48.154;17.102;2023-01-15T04:46:24;99104.25;;;3.25
58909;BMP280;44690;48.154;17.102;2023-01-15T04:47:56;99104.44;;;3.27
58909;BMP280;44690;48.154;17.102;2023-01-15T04:49:28;99093.50;;;3.25
58909;BMP280;44690;48.154;17.102;2023-01-15T04:51:01;99091.34;;;3.24
58909;BMP280;44690;48.154;17.102;2023-01-15T04:52:33;99095.28;;;3.23
58909;BMP280;44690;48.154;17.102;2023-01-15T04:54:06;99101.16;;;3.21
58909;BMP280;44690;48.154;17.102;2023-01-15T04:55:38;99102.38;;;3.20
58909;BMP280;44690;48.154;17.102;2023-01-15T04:57:10;99093.84;;;3.22
58909;BMP280;44690;48.154;17.102;2023-01-15T04:58:42;99092.19;;;3.19
58909;BMP280;44690;48.154;17.102;2023-01-15T05:00:14;99090.03;;;3.17
58909;BMP280;44690;48.154;17.102;2023-01-15T05:01:47;99083.91;;;3.17
58909;BMP280;44690;48.154;17.102;2023-01-15T05:03:34;99086.38;;;3.15
58909;BMP280;44690;48.154;17.102;2023-01-15T05:05:06;99094.44;;;3.15
58909;BMP280;44690;48.154;17.102;2023-01-15T05:06:38;99085.88;;;3.16
58909;BMP280;44690;48.154;17.102;2023-01-15T05:08:10;99084.94;;;3.14
58909;BMP280;44690;48.154;17.102;2023-01-15T05:09:42;99084.00;;;3.11
58909;BMP280;44690;48.154;17.102;2023-01-15T05:11:14;99077.94;;;3.11
58909;BMP280;44690;48.154;17.102;2023-01-15T05:12:46;99079.88;;;3.10
58909;BMP280;44690;48.154;17.102;2023-01-15T05:14:18;99077.72;;;3.09
58909;BMP280;44690;48.154;17.102;2023-01-15T05:15:50;99076.25;;;3.07
58909;BMP280;44690;48.154;17.102;2023-01-15T05:17:22;99075.53;;;3.07
58909;BMP280;44690;48.154;17.102;2023-01-15T05:18:58;99080.91;;;3.07
58909;BMP280;44690;48.154;17.102;2023-01-15T05:20:30;99067.72;;;3.09
58909;BMP280;44690;48.154;17.102;2023-01-15T05:22:02;99074.31;;;3.08
58909;BMP280;44690;48.154;17.102;2023-01-15T05:23:34;99068.75;;;3.06
58909;BMP280;44690;48.154;17.102;2023-01-15T05:25:06;99082.34;;;3.08
58909;BMP280;44690;48.154;17.102;2023-01-15T05:26:38;99074.31;;;3.08
58909;BMP280;44690;48.154;17.102;2023-01-15T05:28:10;99069.69;;;3.09
58909;BMP280;44690;48.154;17.102;2023-01-15T05:29:42;99070.13;;;3.13
58909;BMP280;44690;48.154;17.102;2023-01-15T05:31:15;99072.78;;;3.13
58909;BMP280;44690;48.154;17.102;2023-01-15T05:32:48;99065.66;;;3.15
58909;BMP280;44690;48.154;17.102;2023-01-15T05:34:20;99070.50;;;3.17
58909;BMP280;44690;48.154;17.102;2023-01-15T05:35:52;99068.06;;;3.19
58909;BMP280;44690;48.154;17.102;2023-01-15T05:37:24;99070.50;;;3.17
58909;BMP280;44690;48.154;17.102;2023-01-15T05:38:56;99066.81;;;3.20
58909;BMP280;44690;48.154;17.102;2023-01-15T05:40:30;99067.03;;;3.22
58909;BMP280;44690;48.154;17.102;2023-01-15T05:42:02;99069.50;;;3.20
58909;BMP280;44690;48.154;17.102;2023-01-15T05:43:34;99065.06;;;3.22
58909;BMP280;44690;48.154;17.102;2023-01-15T05:45:06;99074.34;;;3.21
58909;BMP280;44690;48.154;17.102;2023-01-15T05:46:39;99068.25;;;3.21
58909;BMP280;44690;48.154;17.102;2023-01-15T05:48:11;99071.69;;;3.21
58909;BMP280;44690;48.154;17.102;2023-01-15T05:49:43;99069.00;;;3.21
58909;BMP280;44690;48.154;17.102;2023-01-15T05:51:16;99065.56;;;3.21
58909;BMP280;44690;48.154;17.102;2023-01-15T05:52:48;99072.88;;;3.20
58909;BMP280;44690;48.154;17.102;2023-01-15T05:54:24;99069.28;;;3.18
58909;BMP280;44690;48.154;17.102;2023-01-15T05:55:56;99071.56;;;3.14
58909;BMP280;44690;48.154;17.102;2023-01-15T05:57:31;99065.47;;;3.13
58909;BMP280;44690;48.154;17.102;2023-01-15T05:59:04;99064.75;;;3.13
58909;BMP280;44690;48.154;17.102;2023-01-15T06:00:36;99062.78;;;3.13
58909;BMP280;44690;48.154;17.102;2023-01-15T06:02:08;99070.50;;;3.17
58909;BMP280;44690;48.154;17.102;2023-01-15T06:03:40;99062.78;;;3.13
58909;BMP280;44690;48.154;17.102;2023-01-15T06:05:12;99070.84;;;3.13
58909;BMP280;44690;48.154;17.102;2023-01-15T06:06:45;99075.97;;;3.11
58909;BMP280;44690;48.154;17.102;2023-01-15T06:08:17;99073.28;;;3.11
58909;BMP280;44690;48.154;17.102;2023-01-15T06:09:49;99068.44;;;3.10
58909;BMP280;44690;48.154;17.102;2023-01-15T06:11:22;99062.16;;;3.07
58909;BMP280;44690;48.154;17.102;2023-01-15T06:12:54;99065.88;;;3.04
58909;BMP280;44690;48.154;17.102;2023-01-15T06:14:26;99072.25;;;3.01
58909;BMP280;44690;48.154;17.102;2023-01-15T06:15:59;99068.13;;;3.00
58909;BMP280;44690;48.154;17.102;2023-01-15T06:17:30;99071.81;;;2.97
58909;BMP280;44690;48.154;17.102;2023-01-15T06:19:04;99062.88;;;2.94
58909;BMP280;44690;48.154;17.102;2023-01-15T06:20:37;99064.81;;;2.94
58909;BMP280;44690;48.154;17.102;2023-01-15T06:22:09;99078.75;;;2.92
58909;BMP280;44690;48.154;17.102;2023-01-15T06:23:41;99069.25;;;2.91
58909;BMP280;44690;48.154;17.102;2023-01-15T06:25:14;99068.22;;;2.94
58909;BMP280;44690;48.154;17.102;2023-01-15T06:26:46;99063.06;;;2.96
58909;BMP280;44690;48.154;17.102;2023-01-15T06:28:18;99065.75;;;2.96
58909;BMP280;44690;48.154;17.102;2023-01-15T06:29:50;99062.34;;;2.96
58909;BMP280;44690;48.154;17.102;2023-01-15T06:31:22;99067.50;;;2.94
58909;BMP280;44690;48.154;17.102;2023-01-15T06:32:54;99065.53;;;2.94
58909;BMP280;44690;48.154;17.102;2023-01-15T06:34:26;99071.63;;;2.95
58909;BMP280;44690;48.154;17.102;2023-01-15T06:36:01;99072.53;;;2.97
58909;BMP280;44690;48.154;17.102;2023-01-15T06:37:33;99065.03;;;2.96
58909;BMP280;44690;48.154;17.102;2023-01-15T06:39:05;99071.41;;;2.93
58909;BMP280;44690;48.154;17.102;2023-01-15T06:40:37;99068.75;;;2.93
58909;BMP280;44690;48.154;17.102;2023-01-15T06:42:10;99076.34;;;2.89
58909;BMP280;44690;48.154;17.102;2023-01-15T06:44:00;99072.00;;;2.86
58909;BMP280;44690;48.154;17.102;2023-01-15T06:45:51;99067.47;;;2.80
58909;BMP280;44690;48.154;17.102;2023-01-15T06:47:42;99073.53;;;2.81
58909;BMP280;44690;48.154;17.102;2023-01-15T06:49:14;99077.88;;;2.84
58909;BMP280;44690;48.154;17.102;2023-01-15T06:50:46;99073.78;;;2.83
58909;BMP280;44690;48.154;17.102;2023-01-15T06:52:18;99068.41;;;2.83
58909;BMP280;44690;48.154;17.102;2023-01-15T06:53:50;99065.50;;;2.81
58909;BMP280;44690;48.154;17.102;2023-01-15T06:55:22;99068.19;;;2.81
58909;BMP280;44690;48.154;17.102;2023-01-15T06:56:54;99067.69;;;2.83
58909;BMP280;44690;48.154;17.102;2023-01-15T06:58:26;99064.50;;;2.84
58909;BMP280;44690;48.154;17.102;2023-01-15T06:59:58;99060.56;;;2.85
58909;BMP280;44690;48.154;17.102;2023-01-15T07:01:30;99059.56;;;2.88
58909;BMP280;44690;48.154;17.102;2023-01-15T07:03:03;99059.25;;;2.92
58909;BMP280;44690;48.154;17.102;2023-01-15T07:04:35;99058.22;;;2.95
58909;BMP280;44690;48.154;17.102;2023-01-15T07:06:08;99062.34;;;2.96
58909;BMP280;44690;48.154;17.102;2023-01-15T07:07:40;99062.34;;;2.96
58909;BMP280;44690;48.154;17.102;2023-01-15T07:09:12;99057.91;;;2.98
58909;BMP280;44690;48.154;17.102;2023-01-15T07:10:45;99062.53;;;2.98
58909;BMP280;44690;48.154;17.102;2023-01-15T07:12:16;99066.66;;;2.99
58909;BMP280;44690;48.154;17.102;2023-01-15T07:13:49;99072.97;;;3.01
58909;BMP280;44690;48.154;17.102;2023-01-15T07:15:21;99066.88;;;3.01
58909;BMP280;44690;48.154;17.102;2023-01-15T07:16:53;99067.09;;;3.03
58909;BMP280;44690;48.154;17.102;2023-01-15T07:18:25;99058.31;;;3.02
58909;BMP280;44690;48.154;17.102;2023-01-15T07:19:57;99063.38;;;3.06
58909;BMP280;44690;48.154;17.102;2023-01-15T07:21:30;99066.25;;;3.08
58909;BMP280;44690;48.154;17.102;2023-01-15T07:23:02;99069.38;;;3.12
58909;BMP280;44690;48.154;17.102;2023-01-15T07:24:34;99069.59;;;3.14
58909;BMP280;44690;48.154;17.102;2023-01-15T07:26:06;99068.06;;;3.19
58909;BMP280;44690;48.154;17.102;2023-01-15T07:27:38;99065.78;;;3.23
58909;BMP280;44690;48.154;17.102;2023-01-15T07:29:10;99061.53;;;3.27
58909;BMP280;44690;48.154;17.102;2023-01-15T07:30:42;99063.91;;;3.31
58909;BMP280;44690;48.154;17.102;2023-01-15T07:32:14;99073.72;;;3.42
58909;BMP280;44690;48.154;17.102;2023-01-15T07:33:46;99064.94;;;3.41
58909;BMP280;44690;48.154;17.102;2023-01-15T07:35:18;99064.66;;;3.45
58909;BMP280;44690;48.154;17.102;2023-01-15T07:36:50;99068.28;;;3.47
58909;BMP280;44690;48.154;17.102;2023-01-15T07:38:22;99064.00;;;3.52
58909;BMP280;44690;48.154;17.102;2023-01-15T07:39:54;99067.84;;;3.56
58909;BMP280;44690;48.154;17.102;2023-01-15T07:41:28;99073.38;;;3.58
58909;BMP280;44690;48.154;17.102;2023-01-15T07:43:18;99071.66;;;3.61
58909;BMP280;44690;48.154;17.102;2023-01-15T07:45:09;99072.56;;;3.64
58909;BMP280;44690;48.154;17.102;2023-01-15T07:46:59;99067.41;;;3.66
58909;BMP280;44690;48.154;17.102;2023-01-15T07:48:50;99069.56;;;3.67
58909;BMP280;44690;48.154;17.102;2023-01-15T07:50:40;99072.47;;;3.69
58909;BMP280;44690;48.154;17.102;2023-01-15T07:52:16;99080.41;;;3.75
58909;BMP280;44690;48.154;17.102;2023-01-15T07:53:48;99068.09;;;3.79
58909;BMP280;44690;48.154;17.102;2023-01-15T07:55:20;99065.09;;;3.83
58909;BMP280;44690;48.154;17.102;2023-01-15T07:56:53;99065.41;;;3.93
58909;BMP280;44690;48.154;17.102;2023-01-15T07:58:26;99065.09;;;3.96
58909;BMP280;44690;48.154;17.102;2023-01-15T07:59:58;99065.16;;;4.04
58909;BMP280;44690;48.154;17.102;2023-01-15T08:01:30;99066.28;;;4.08
58909;BMP280;44690;48.154;17.102;2023-01-15T08:03:02;99070.09;;;4.13
58909;BMP280;44690;48.154;17.102;2023-01-15T08:04:34;99062.44;;;4.17
58909;BMP280;44690;48.154;17.102;2023-01-15T08:06:06;99053.84;;;4.19
58909;BMP280;44690;48.154;17.102;2023-01-15T08:07:39;99056.75;;;4.21
58909;BMP280;44690;48.154;17.102;2023-01-15T08:09:11;99044.22;;;4.23
58909;BMP280;44690;48.154;17.102;2023-01-15T08:10:43;99048.78;;;4.28
58909;BMP280;44690;48.154;17.102;2023-01-15T08:12:34;99047.00;;;4.31
58909;BMP280;44690;48.154;17.102;2023-01-15T08:14:27;99046.88;;;4.36
58909;BMP280;44690;48.154;17.102;2023-01-15T08:16:18;99044.38;;;4.38
58909;BMP280;44690;48.154;17.102;2023-01-15T08:17:51;99052.81;;;4.43
58909;BMP280;44690;48.154;17.102;2023-01-15T08:19:23;99067.19;;;4.45
58909;BMP280;44690;48.154;17.102;2023-01-15T08:21:00;99060.25;;;4.50
58909;BMP280;44690;48.154;17.102;2023-01-15T08:22:32;99052.50;;;4.46
58909;BMP280;44690;48.154;17.102;2023-01-15T08:24:04;99056.09;;;4.49
58909;BMP280;44690;48.154;17.102;2023-01-15T08:25:36;99061.59;;;4.43
58909;BMP280;44690;48.154;17.102;2023-01-15T08:27:08;99070.38;;;4.44
58909;BMP280;44690;48.154;17.102;2023-01-15T08:28:41;99059.13;;;4.45
58909;BMP280;44690;48.154;17.102;2023-01-15T08:30:13;99066.13;;;4.48
58909;BMP280;44690;48.154;17.102;2023-01-15T08:31:46;99059.50;;;4.49
58909;BMP280;44690;48.154;17.102;2023-01-15T08:33:18;99057.75;;;4.52
58909;BMP280;44690;48.154;17.102;2023-01-15T08:34:50;99062.94;;;4.50
58909;BMP280;44690;48.154;17.102;2023-01-15T08:36:22;99054.41;;;4.59
58909;BMP280;44690;48.154;17.102;2023-01-15T08:37:54;99060.16;;;4.63
58909;BMP280;44690;48.154;17.102;2023-01-15T08:39:26;99049.69;;;4.73
58909;BMP280;44690;48.154;17.102;2023-01-15T08:40:58;99052.53;;;4.75
58909;BMP280;44690;48.154;17.102;2023-01-15T08:42:30;99049.50;;;4.78
58909;BMP280;44690;48.154;17.102;2023-01-15T08:44:02;99050.63;;;4.83
58909;BMP280;44690;48.154;17.102;2023-01-15T08:45:35;99051.94;;;4.89
58909;BMP280;44690;48.154;17.102;2023-01-15T08:47:07;99056.59;;;4.89
58909;BMP280;44690;48.154;17.102;2023-01-15T08:48:39;99052.50;;;4.96
58909;BMP280;44690;48.154;17.102;2023-01-15T08:50:11;99057.31;;;4.89
58909;BMP280;44690;48.154;17.102;2023-01-15T08:51:43;99063.41;;;4.90
58909;BMP280;44690;48.154;17.102;2023-01-15T08:53:16;99055.75;;;4.94
58909;BMP280;44690;48.154;17.102;2023-01-15T08:54:49;99053.38;;;4.90
58909;BMP280;44690;48.154;17.102;2023-01-15T08:56:22;99054.81;;;4.91
58909;BMP280;44690;48.154;17.102;2023-01-15T08:57:53;99057.31;;;4.89
58909;BMP280;44690;48.154;17.102;2023-01-15T08:59:26;99051.75;;;4.87
58909;BMP280;44690;48.154;17.102;2023-01-15T09:01:04;99046.75;;;4.91
58909;BMP280;44690;48.154;17.102;2023-01-15T09:02:37;99043.09;;;4.81
58909;BMP280;44690;48.154;17.102;2023-01-15T09:04:12;99045.47;;;4.64
58909;BMP280;44690;48.154;17.102;2023-01-15T09:05:44;99036.72;;;4.43
58909;BMP280;44690;48.154;17.102;2023-01-15T09:07:16;99034.09;;;4.29
58909;BMP280;44690;48.154;17.102;2023-01-15T09:08:48;99028.84;;;4.24
58909;BMP280;44690;48.154;17.102;2023-01-15T09:10:21;99029.56;;;4.24
58909;BMP280;44690;48.154;17.102;2023-01-15T09:11:53;99008.97;;;4.06
58909;BMP280;44690;48.154;17.102;2023-01-15T09:13:25;99008.38;;;4.00
58909;BMP280;44690;48.154;17.102;2023-01-15T09:14:57;99009.88;;;3.88
58909;BMP280;44690;48.154;17.102;2023-01-15T09:16:35;99002.47;;;3.80
58909;BMP280;44690;48.154;17.102;2023-01-15T09:18:07;98986.56;;;3.82
58909;BMP280;44690;48.154;17.102;2023-01-15T09:19:41;98996.28;;;3.85
58909;BMP280;44690;48.154;17.102;2023-01-15T09:21:13;98989.56;;;3.79
58909;BMP280;44690;48.154;17.102;2023-01-15T09:22:45;98991.31;;;3.76
58909;BMP280;44690;48.154;17.102;2023-01-15T09:24:17;98998.28;;;3.72
58909;BMP280;44690;48.154;17.102;2023-01-15T09:25:50;98994.28;;;3.65